Time;durP1;ratioP1;P1;durP2;ratioP2;P2;SDS_P1;SDS_P2;PMS_P1;PMS_P2;Temp;Humidity;BMP_temperature;BMP_pressure;BME280_temperature;BME280_humidity;BME280_pressure;Samples;Min_cycle;Max_cycle;Signal;HPM_P1;HPM_P2
2022/03/23 00:00:53;;;;;;;5.85;4.75;;;20.50;81.60;;;;;;4225633;28;20662;-71
2022/03/23 00:02:57;;;;;;;7.78;5.53;;;20.50;81.60;;;;;;4226119;28;20589;-71
2022/03/23 00:05:00;;;;;;;7.63;5.03;;;20.50;82.40;;;;;;4220669;28;20217;-71
2022/03/23 00:07:02;;;;;;;7.20;5.10;;;20.50;82.20;;;;;;4223436;28;20271;-71
2022/03/23 00:09:04;;;;;;;6.25;5.18;;;20.40;82.10;;;;;;4228419;28;20740;-70
2022/03/23 00:11:07;;;;;;;5.80;5.03;;;20.40;82.10;;;;;;4228594;28;20218;-70
2022/03/23 00:13:10;;;;;;;6.15;5.40;;;20.40;82.20;;;;;;4230041;28;20263;-69
2022/03/23 00:15:12;;;;;;;7.97;5.45;;;20.50;82.70;;;;;;4230029;28;20218;-69
2022/03/23 00:17:14;;;;;;;7.22;5.20;;;20.40;81.80;;;;;;4230587;28;20302;-69
2022/03/23 00:19:18;;;;;;;6.40;5.45;;;20.40;81.70;;;;;;4227628;28;20220;-69
2022/03/23 00:21:22;;;;;;;7.10;5.28;;;20.40;82.80;;;;;;4217824;28;20279;-69
2022/03/23 00:23:24;;;;;;;6.82;5.20;;;20.40;82.10;;;;;;4230893;28;20271;-69
2022/03/23 00:25:27;;;;;;;5.88;5.20;;;20.40;82.80;;;;;;4231246;28;20218;-69
2022/03/23 00:27:29;;;;;;;6.97;4.93;;;20.40;82.20;;;;;;4230097;28;20210;-69
2022/03/23 00:29:31;;;;;;;7.05;5.13;;;20.40;81.90;;;;;;4229268;28;20263;-69
2022/03/23 00:31:34;;;;;;;7.88;5.55;;;20.40;82.00;;;;;;4231608;28;20234;-69
2022/03/23 00:33:36;;;;;;;6.97;5.85;;;20.30;81.80;;;;;;4221807;28;20284;-69
2022/03/23 00:35:41;;;;;;;6.80;5.15;;;20.40;82.30;;;;;;4227449;28;20599;-69
2022/03/23 00:37:44;;;;;;;7.53;5.53;;;20.30;82.00;;;;;;4229184;28;20237;-69
2022/03/23 00:39:46;;;;;;;7.15;5.07;;;20.30;82.60;;;;;;4223549;28;20283;-69
2022/03/23 00:41:50;;;;;;;7.43;5.20;;;20.30;82.70;;;;;;4229134;28;20221;-69
2022/03/23 00:43:52;;;;;;;5.93;4.60;;;20.40;82.40;;;;;;4225802;28;20222;-69
2022/03/23 00:45:55;;;;;;;6.35;5.13;;;20.40;82.50;;;;;;4223753;28;20221;-69
2022/03/23 00:47:58;;;;;;;8.55;5.50;;;20.30;82.00;;;;;;4228836;28;20263;-69
2022/03/23 00:50:00;;;;;;;8.20;5.28;;;20.30;83.20;;;;;;4219004;28;20659;-69
2022/03/23 00:52:05;;;;;;;6.53;5.43;;;20.30;82.80;;;;;;4231062;28;20267;-69
2022/03/23 00:54:09;;;;;;;7.47;5.57;;;20.30;82.50;;;;;;4226498;28;20633;-69
2022/03/23 00:56:12;;;;;;;6.75;5.25;;;20.30;82.50;;;;;;4228411;28;20217;-69
2022/03/23 00:58:14;;;;;;;5.57;5.00;;;20.30;82.50;;;;;;4229470;28;20241;-68
2022/03/23 01:00:20;;;;;;;8.25;5.63;;;20.30;82.40;;;;;;4229954;28;20213;-69
2022/03/23 01:02:22;;;;;;;8.05;5.75;;;20.30;82.70;;;;;;4223500;28;20662;-69
2022/03/23 01:04:26;;;;;;;9.70;5.68;;;20.30;82.50;;;;;;4225886;28;20291;-69
2022/03/23 01:06:29;;;;;;;7.05;5.68;;;20.30;82.20;;;;;;4216319;28;20264;-69
2022/03/23 01:08:33;;;;;;;5.57;4.97;;;20.30;82.60;;;;;;4228553;28;20218;-69
2022/03/23 01:10:36;;;;;;;6.90;5.38;;;20.20;82.50;;;;;;4223746;28;20295;-69
2022/03/23 01:12:38;;;;;;;8.65;5.75;;;20.20;82.50;;;;;;4223869;27;20211;-69
2022/03/23 01:14:41;;;;;;;8.23;5.55;;;20.20;82.50;;;;;;4226887;28;20292;-69
2022/03/23 01:16:44;;;;;;;6.85;5.47;;;20.20;82.50;;;;;;4229468;28;20225;-69
2022/03/23 01:18:46;;;;;;;6.20;5.60;;;20.20;83.20;;;;;;4230178;28;20222;-69
2022/03/23 01:20:48;;;;;;;6.28;5.47;;;20.20;82.00;;;;;;4228672;28;20613;-69
2022/03/23 01:22:51;;;;;;;7.70;5.43;;;20.20;82.50;;;;;;4216031;28;20252;-69
2022/03/23 01:24:55;;;;;;;10.55;5.90;;;20.20;82.30;;;;;;4230291;28;20222;-69
2022/03/23 01:26:57;;;;;;;7.53;5.78;;;20.20;82.20;;;;;;4229633;28;21601;-69
2022/03/23 01:29:00;;;;;;;7.13;5.88;;;20.20;82.50;;;;;;4227551;28;20603;-69
2022/03/23 01:31:03;;;;;;;7.13;5.60;;;20.20;82.70;;;;;;4218293;28;20210;-69
2022/03/23 01:33:05;;;;;;;8.98;6.05;;;20.10;82.60;;;;;;4229774;28;20295;-69
2022/03/23 01:35:09;;;;;;;7.60;5.63;;;20.20;82.40;;;;;;4222276;28;20214;-69
2022/03/23 01:37:11;;;;;;;6.35;5.75;;;20.20;82.70;;;;;;4222128;28;20217;-69
2022/03/23 01:39:14;;;;;;;8.25;6.07;;;20.20;82.60;;;;;;4214683;28;20230;-69
2022/03/23 01:41:17;;;;;;;8.25;6.10;;;20.20;83.20;;;;;;4203517;28;20214;-71
2022/03/23 01:43:20;;;;;;;6.05;5.45;;;20.10;82.70;;;;;;4208104;28;20823;-71
2022/03/23 01:45:22;;;;;;;7.28;5.47;;;20.10;83.10;;;;;;4211111;28;20218;-71
2022/03/23 01:47:25;;;;;;;7.03;5.35;;;20.10;82.70;;;;;;4204912;28;20214;-71
2022/03/23 01:49:27;;;;;;;7.57;5.95;;;20.10;82.90;;;;;;4208818;28;20275;-71
2022/03/23 01:51:30;;;;;;;7.80;5.65;;;20.10;82.50;;;;;;4211256;28;20218;-71
2022/03/23 01:53:32;;;;;;;7.15;5.70;;;20.10;82.40;;;;;;4211242;28;20222;-71
2022/03/23 01:55:35;;;;;;;6.97;5.38;;;20.10;83.10;;;;;;4210580;28;20214;-71
2022/03/23 01:57:40;;;;;;;8.00;5.57;;;20.00;82.60;;;;;;4206359;28;20703;-71
2022/03/23 01:59:43;;;;;;;6.90;5.55;;;20.10;82.70;;;;;;4205691;28;20333;-71
2022/03/23 02:01:46;;;;;;;7.13;5.70;;;20.10;82.70;;;;;;4210461;28;20226;-70
2022/03/23 02:03:49;;;;;;;7.28;5.47;;;20.10;82.90;;;;;;4211587;28;20520;-70
2022/03/23 02:05:51;;;;;;;7.97;5.82;;;20.10;82.90;;;;;;4206991;28;20335;-70
2022/03/23 02:07:55;;;;;;;7.82;5.78;;;20.10;83.30;;;;;;4209748;28;20214;-71
2022/03/23 02:09:59;;;;;;;7.50;6.00;;;20.10;83.30;;;;;;4211288;28;20210;-71
2022/03/23 02:12:03;;;;;;;7.32;5.70;;;20.00;82.80;;;;;;4211725;28;20218;-71
2022/03/23 02:14:07;;;;;;;6.65;5.35;;;20.00;82.90;;;;;;4210019;28;20611;-71
2022/03/23 02:16:09;;;;;;;7.88;5.72;;;20.00;83.10;;;;;;4201629;28;20249;-71
2022/03/23 02:18:11;;;;;;;6.97;5.40;;;20.10;83.20;;;;;;4200580;28;20226;-71
2022/03/23 02:20:14;;;;;;;8.60;5.55;;;20.10;82.80;;;;;;4211138;28;20272;-71
2022/03/23 02:22:18;;;;;;;7.25;5.70;;;20.00;83.10;;;;;;4210044;28;20234;-71
2022/03/23 02:24:24;;;;;;;7.57;5.63;;;20.00;83.20;;;;;;4210076;28;20217;-71
2022/03/23 02:26:27;;;;;;;8.15;6.00;;;20.00;83.10;;;;;;4210104;28;20272;-71
2022/03/23 02:28:29;;;;;;;6.85;5.78;;;20.00;83.20;;;;;;4210088;28;20252;-71
2022/03/23 02:30:31;;;;;;;7.15;5.60;;;20.00;82.60;;;;;;4211052;28;20624;-71
2022/03/23 02:32:34;;;;;;;6.95;5.20;;;20.00;82.80;;;;;;4204022;28;20662;-71
2022/03/23 02:34:36;;;;;;;6.95;5.88;;;20.00;82.60;;;;;;4207736;28;20248;-70
2022/03/23 02:36:39;;;;;;;7.72;5.90;;;20.00;82.80;;;;;;4204203;28;20253;-71
2022/03/23 02:38:42;;;;;;;7.97;6.03;;;19.90;82.70;;;;;;4208066;28;20283;-71
2022/03/23 02:40:45;;;;;;;8.13;5.70;;;19.90;82.90;;;;;;4216468;28;20219;-70
2022/03/23 02:42:47;;;;;;;8.95;6.00;;;19.90;82.20;;;;;;4217119;28;20217;-71
2022/03/23 02:44:49;;;;;;;8.43;6.10;;;19.90;82.70;;;;;;4217374;28;20715;-71
2022/03/23 02:46:52;;;;;;;6.90;5.72;;;19.90;83.00;;;;;;4217662;28;20222;-71
2022/03/23 02:48:54;;;;;;;8.48;6.07;;;19.90;82.70;;;;;;4216221;28;20210;-71
2022/03/23 02:50:57;;;;;;;8.45;5.40;;;19.90;82.70;;;;;;4218661;28;20263;-71
2022/03/23 03:02:44;;;;;;;7.10;6.07;;;19.90;82.50;;;;;;4221218;28;20654;-70
2022/03/23 03:04:46;;;;;;;13.25;6.50;;;19.80;82.80;;;;;;4220079;28;20223;-71
2022/03/23 03:06:49;;;;;;;7.82;5.88;;;19.80;82.20;;;;;;4221922;28;20252;-71
2022/03/23 03:08:51;;;;;;;8.02;5.47;;;19.80;82.20;;;;;;4219388;28;20247;-71
2022/03/23 03:10:55;;;;;;;8.25;5.80;;;19.80;82.40;;;;;;4220343;28;21642;-71
2022/03/23 03:12:57;;;;;;;8.15;6.00;;;19.80;82.60;;;;;;4221000;28;20271;-71
2022/03/23 03:15:00;;;;;;;8.35;5.47;;;19.80;82.70;;;;;;4222235;28;20214;-71
2022/03/23 03:17:02;;;;;;;7.88;5.97;;;19.80;83.10;;;;;;4220081;28;20217;-70
2022/03/23 03:19:09;;;;;;;10.13;6.20;;;19.80;82.60;;;;;;4208681;28;20241;-71
2022/03/23 03:21:12;;;;;;;8.32;6.30;;;19.80;82.60;;;;;;4222705;28;20719;-71
2022/03/23 03:23:15;;;;;;;7.85;5.95;;;19.80;82.50;;;;;;4216435;28;20863;-70
2022/03/23 03:25:19;;;;;;;7.90;6.22;;;19.80;82.80;;;;;;4219416;28;20230;-71
2022/03/23 03:27:23;;;;;;;8.00;5.82;;;19.80;82.50;;;;;;4220380;28;20260;-71
2022/03/23 03:29:26;;;;;;;6.85;5.60;;;19.80;82.30;;;;;;4218538;28;20227;-70
2022/03/23 03:31:28;;;;;;;10.45;6.35;;;19.80;82.70;;;;;;4219937;28;20226;-71
2022/03/23 03:33:30;;;;;;;8.77;5.85;;;19.80;82.20;;;;;;4220617;28;20221;-70
2022/03/23 03:35:33;;;;;;;6.97;6.28;;;19.80;82.70;;;;;;4216455;28;20272;-71
2022/03/23 03:37:36;;;;;;;6.85;5.30;;;19.80;82.30;;;;;;4217381;28;20291;-71
2022/03/23 03:39:38;;;;;;;7.90;6.15;;;19.70;82.20;;;;;;4225230;28;20709;-71
2022/03/23 03:41:41;;;;;;;10.23;6.00;;;19.70;82.20;;;;;;4229956;28;20217;-71
2022/03/23 03:43:44;;;;;;;8.90;6.20;;;19.70;82.90;;;;;;4228573;28;20263;-71
2022/03/23 03:45:47;;;;;;;7.05;5.90;;;19.80;82.50;;;;;;4229478;28;20290;-70
2022/03/23 03:47:49;;;;;;;11.50;6.47;;;19.70;82.20;;;;;;4229464;28;20263;-70
2022/03/23 03:49:52;;;;;;;9.20;6.05;;;19.70;82.30;;;;;;4222534;28;20264;-71
2022/03/23 03:51:54;;;;;;;6.75;5.72;;;19.70;82.50;;;;;;4228756;28;20239;-71
2022/03/23 03:53:57;;;;;;;10.40;6.28;;;19.70;82.60;;;;;;4228872;28;20237;-71
2022/03/23 03:55:59;;;;;;;7.97;6.03;;;19.70;82.80;;;;;;4218223;28;20728;-70
2022/03/23 03:58:01;;;;;;;6.82;5.35;;;19.70;82.50;;;;;;4229719;28;20275;-69
2022/03/23 04:00:07;;;;;;;6.63;5.80;;;19.70;82.20;;;;;;4231733;28;20632;-69
2022/03/23 04:02:09;;;;;;;7.47;6.03;;;19.70;82.10;;;;;;4222006;28;20638;-69
2022/03/23 04:04:11;;;;;;;9.38;6.15;;;19.70;82.20;;;;;;4231732;28;20226;-69
2022/03/23 04:06:14;;;;;;;8.75;6.28;;;19.60;82.20;;;;;;4224644;28;20252;-69
2022/03/23 04:08:16;;;;;;;8.50;6.28;;;19.70;82.20;;;;;;4226305;28;20456;-69
2022/03/23 04:10:18;;;;;;;7.90;6.10;;;19.60;82.30;;;;;;4223881;28;20266;-69
2022/03/23 04:12:21;;;;;;;10.80;6.05;;;19.60;82.40;;;;;;4224924;27;20275;-69
2022/03/23 04:14:23;;;;;;;8.07;5.97;;;19.60;82.20;;;;;;4229404;28;20236;-69
2022/03/23 04:16:27;;;;;;;6.72;5.53;;;19.70;82.40;;;;;;4230881;28;20610;-69
2022/03/23 04:18:29;;;;;;;8.27;5.72;;;19.60;82.20;;;;;;4229812;28;20254;-69
2022/03/23 04:20:31;;;;;;;9.77;5.88;;;19.60;83.00;;;;;;4231013;28;20719;-69
2022/03/23 04:22:34;;;;;;;11.02;5.80;;;19.60;82.40;;;;;;4232034;27;20341;-69
2022/03/23 04:24:36;;;;;;;8.93;6.20;;;19.60;82.30;;;;;;4228351;28;20217;-69
2022/03/23 04:26:39;;;;;;;8.23;5.63;;;19.60;82.20;;;;;;4228133;28;20270;-69
2022/03/23 04:28:41;;;;;;;8.43;5.85;;;19.60;82.30;;;;;;4230607;28;20218;-69
2022/03/23 04:30:43;;;;;;;7.30;5.95;;;19.60;82.40;;;;;;4229385;28;20213;-69
2022/03/23 04:32:49;;;;;;;9.00;6.25;;;19.70;82.20;;;;;;4230662;28;20231;-69
2022/03/23 04:34:51;;;;;;;7.70;5.97;;;19.60;82.20;;;;;;4230287;28;20802;-69
2022/03/23 04:36:54;;;;;;;8.18;6.25;;;19.60;82.20;;;;;;4229661;28;20217;-69
2022/03/23 04:38:56;;;;;;;9.20;6.10;;;19.60;82.20;;;;;;4230155;28;20245;-69
2022/03/23 04:41:00;;;;;;;9.45;6.47;;;19.60;82.30;;;;;;4231298;28;20214;-69
2022/03/23 04:43:02;;;;;;;7.60;6.28;;;19.60;82.40;;;;;;4229914;28;20214;-69
2022/03/23 04:45:06;;;;;;;8.57;6.57;;;19.60;82.40;;;;;;4229749;28;20206;-69
2022/03/23 04:47:08;;;;;;;7.25;6.30;;;19.60;82.20;;;;;;4223204;28;20267;-69
2022/03/23 04:49:12;;;;;;;9.68;6.45;;;19.60;82.30;;;;;;4230301;28;21071;-69
2022/03/23 04:51:15;;;;;;;9.52;6.63;;;19.50;82.50;;;;;;4222568;28;20218;-69
2022/03/23 04:53:18;;;;;;;7.10;5.72;;;19.50;82.20;;;;;;4230888;28;20221;-69
2022/03/23 04:55:20;;;;;;;9.75;6.13;;;19.50;82.20;;;;;;4230115;28;20275;-69
2022/03/23 04:57:23;;;;;;;8.20;6.47;;;19.50;82.30;;;;;;4230101;28;20213;-69
2022/03/23 04:59:25;;;;;;;8.90;6.38;;;19.60;82.20;;;;;;4229962;28;20586;-69
2022/03/23 05:01:27;;;;;;;7.78;6.90;;;19.50;82.20;;;;;;4230502;28;20267;-69
2022/03/23 05:03:30;;;;;;;8.02;5.93;;;19.60;82.40;;;;;;4223227;28;20266;-69
2022/03/23 05:05:34;;;;;;;8.27;6.38;;;19.60;82.30;;;;;;4223896;27;20275;-69
2022/03/23 05:07:37;;;;;;;8.75;6.40;;;19.60;82.40;;;;;;4230598;28;20214;-69
2022/03/23 05:09:39;;;;;;;8.80;6.63;;;19.60;82.20;;;;;;4229480;28;20218;-69
2022/03/23 05:11:41;;;;;;;7.63;6.05;;;19.60;82.20;;;;;;4220732;28;20213;-69
2022/03/23 05:13:44;;;;;;;8.98;6.78;;;19.50;82.10;;;;;;4222851;28;20240;-69
2022/03/23 05:15:46;;;;;;;9.75;6.55;;;19.60;82.30;;;;;;4228698;28;20251;-69
2022/03/23 05:17:48;;;;;;;8.00;6.55;;;19.60;82.20;;;;;;4228695;28;20230;-69
2022/03/23 05:19:51;;;;;;;8.35;6.50;;;19.50;82.10;;;;;;4228253;28;20328;-69
2022/03/23 05:21:54;;;;;;;8.80;6.40;;;19.50;82.10;;;;;;4230936;28;20727;-69
2022/03/23 05:23:57;;;;;;;9.55;6.68;;;19.50;82.10;;;;;;4230337;28;20654;-69
2022/03/23 05:25:59;;;;;;;8.45;6.22;;;19.50;82.20;;;;;;4230467;28;20276;-69
2022/03/23 05:28:02;;;;;;;11.55;6.32;;;19.50;82.10;;;;;;4229876;28;20213;-69
2022/03/23 05:30:07;;;;;;;9.43;6.72;;;19.50;82.20;;;;;;4225741;27;20350;-69
2022/03/23 05:32:16;;;;;;;7.38;5.95;;;19.50;82.30;;;;;;4213507;28;20206;-69
2022/03/23 05:34:18;;;;;;;8.18;6.32;;;19.50;82.20;;;;;;4230246;28;20271;-69
2022/03/23 05:36:20;;;;;;;9.02;6.63;;;19.40;82.10;;;;;;4228201;28;20239;-69
2022/03/23 05:38:24;;;;;;;7.35;6.35;;;19.40;82.10;;;;;;4228631;28;20222;-69
2022/03/23 05:40:27;;;;;;;8.32;7.07;;;19.50;82.10;;;;;;4230124;28;20237;-69
2022/03/23 05:42:29;;;;;;;7.63;6.30;;;19.50;82.00;;;;;;4228886;28;20222;-69
2022/03/23 05:44:31;;;;;;;10.63;7.03;;;19.50;82.10;;;;;;4223120;28;20270;-69
2022/03/23 05:46:34;;;;;;;9.25;6.53;;;19.50;82.10;;;;;;4230125;28;20270;-69
2022/03/23 05:48:36;;;;;;;9.15;6.50;;;19.50;82.10;;;;;;4222807;28;20217;-69
2022/03/23 05:50:39;;;;;;;10.45;7.10;;;19.50;82.00;;;;;;4229106;28;20214;-69
2022/03/23 05:52:41;;;;;;;11.63;7.50;;;19.40;81.90;;;;;;4230045;28;20218;-69
2022/03/23 05:54:45;;;;;;;7.72;6.22;;;19.40;82.40;;;;;;4228637;28;20210;-69
2022/03/23 05:56:47;;;;;;;11.77;7.40;;;19.40;82.90;;;;;;4226477;28;20682;-69
2022/03/23 05:58:50;;;;;;;10.32;6.75;;;19.30;82.00;;;;;;4229842;28;20270;-69
2022/03/23 06:00:52;;;;;;;11.57;6.40;;;19.40;82.10;;;;;;4228982;28;20241;-69
2022/03/23 06:02:54;;;;;;;9.93;6.68;;;19.40;82.20;;;;;;4227694;28;20217;-69
2022/03/23 06:04:57;;;;;;;8.90;6.55;;;19.50;82.40;;;;;;4226702;28;20214;-69
2022/03/23 06:06:59;;;;;;;8.88;6.43;;;19.50;84.00;;;;;;4228921;28;20683;-69
2022/03/23 06:09:02;;;;;;;8.55;6.70;;;19.50;85.40;;;;;;4227403;28;20221;-69
2022/03/23 06:11:05;;;;;;;8.73;6.78;;;19.50;86.30;;;;;;4229435;27;20267;-69
2022/03/23 06:13:08;;;;;;;8.20;6.13;;;19.60;86.20;;;;;;4226313;28;20661;-69
2022/03/23 06:15:11;;;;;;;8.77;6.57;;;19.60;86.80;;;;;;4229397;28;20217;-69
2022/03/23 06:17:14;;;;;;;10.95;6.82;;;19.60;86.80;;;;;;4229715;28;20321;-69
2022/03/23 06:19:17;;;;;;;8.43;6.80;;;19.60;86.70;;;;;;4229647;28;20266;-70
2022/03/23 06:21:19;;;;;;;8.15;6.63;;;19.60;87.10;;;;;;4227515;28;20648;-71
2022/03/23 06:23:22;;;;;;;9.70;6.88;;;19.70;87.00;;;;;;4229652;28;20218;-71
2022/03/23 06:25:25;;;;;;;7.70;6.22;;;19.70;86.40;;;;;;4229562;28;20218;-71
2022/03/23 06:27:29;;;;;;;9.07;6.93;;;19.70;87.10;;;;;;4227803;28;20217;-71
2022/03/23 06:29:32;;;;;;;9.75;6.70;;;19.70;86.30;;;;;;4228068;28;20218;-71
2022/03/23 06:31:34;;;;;;;9.13;7.10;;;19.80;85.80;;;;;;4229135;28;20222;-69
2022/03/23 06:33:36;;;;;;;8.50;6.72;;;19.80;86.00;;;;;;4226735;28;20247;-69
2022/03/23 06:35:39;;;;;;;10.30;7.10;;;19.80;86.30;;;;;;4229218;28;20233;-69
2022/03/23 06:37:41;;;;;;;9.95;6.95;;;19.90;86.30;;;;;;4228161;28;20689;-69
2022/03/23 06:39:43;;;;;;;8.80;6.97;;;19.90;86.30;;;;;;4228241;28;20234;-69
2022/03/23 06:41:46;;;;;;;10.02;7.00;;;19.90;86.00;;;;;;4228314;28;20221;-69
2022/03/23 06:43:49;;;;;;;8.82;6.82;;;19.90;85.00;;;;;;4218182;28;20972;-70
2022/03/23 06:45:52;;;;;;;11.25;7.45;;;19.90;85.20;;;;;;4221608;28;20219;-69
2022/03/23 06:47:54;;;;;;;8.55;6.68;;;19.90;85.80;;;;;;4228514;28;20210;-69
2022/03/23 06:49:56;;;;;;;10.00;7.28;;;19.90;85.20;;;;;;4227120;28;20558;-69
2022/03/23 06:51:59;;;;;;;9.43;7.13;;;20.00;85.20;;;;;;4220567;28;20290;-68
2022/03/23 06:54:01;;;;;;;12.70;7.80;;;20.00;84.80;;;;;;4228116;28;20213;-69
2022/03/23 06:56:04;;;;;;;10.20;7.30;;;20.00;84.40;;;;;;4229231;28;20221;-69
2022/03/23 06:58:06;;;;;;;9.38;7.65;;;20.00;84.00;;;;;;4229040;28;20217;-69
2022/03/23 07:00:13;;;;;;;8.32;6.88;;;20.00;84.10;;;;;;4222766;28;20213;-69
2022/03/23 07:02:16;;;;;;;9.07;7.07;;;20.10;84.00;;;;;;4227268;28;20278;-69
2022/03/23 07:04:18;;;;;;;10.18;7.35;;;20.10;85.10;;;;;;4221187;28;20658;-69
2022/03/23 07:06:20;;;;;;;9.80;7.32;;;20.10;84.40;;;;;;4228993;28;20217;-69
2022/03/23 07:10:42;;;;;;;8.90;7.70;;;20.10;84.20;;;;;;4226512;28;20198;-69
2022/03/23 07:12:45;;;;;;;10.00;6.78;;;20.20;84.00;;;;;;4230814;27;20279;-69
2022/03/23 07:14:48;;;;;;;10.25;7.97;;;20.20;84.20;;;;;;4231590;28;20218;-69
2022/03/23 07:16:51;;;;;;;11.73;7.82;;;20.20;84.10;;;;;;4230011;28;20217;-69
2022/03/23 07:18:54;;;;;;;9.27;7.20;;;20.20;84.40;;;;;;4226209;27;20279;-69
2022/03/23 07:20:56;;;;;;;10.82;7.60;;;20.20;83.90;;;;;;4227632;28;20658;-69
2022/03/23 07:22:58;;;;;;;9.18;6.72;;;20.20;83.70;;;;;;4230435;28;20222;-69
2022/03/23 07:25:01;;;;;;;10.20;7.40;;;20.20;83.70;;;;;;4230375;28;20749;-69
2022/03/23 07:27:04;;;;;;;8.73;7.05;;;20.30;84.00;;;;;;4231190;28;20637;-69
2022/03/23 07:29:06;;;;;;;9.38;6.90;;;20.30;83.80;;;;;;4229797;28;20247;-69
2022/03/23 07:31:09;;;;;;;10.00;7.32;;;20.30;84.10;;;;;;4223029;28;20226;-69
2022/03/23 07:33:13;;;;;;;10.10;7.40;;;20.30;84.30;;;;;;4221294;28;20271;-68
2022/03/23 07:35:15;;;;;;;12.48;7.25;;;20.30;83.60;;;;;;4224400;28;20233;-69
2022/03/23 07:37:18;;;;;;;8.55;6.63;;;20.30;83.90;;;;;;4231272;28;20297;-69
2022/03/23 07:39:23;;;;;;;9.52;6.85;;;20.40;84.30;;;;;;4230882;28;20640;-69
2022/03/23 07:41:25;;;;;;;7.30;6.35;;;20.30;84.00;;;;;;4231693;28;20295;-69
2022/03/23 07:43:27;;;;;;;9.48;7.40;;;20.40;84.20;;;;;;4216826;28;20616;-69
2022/03/23 07:45:30;;;;;;;10.85;7.38;;;20.40;84.70;;;;;;4231105;28;20213;-69
2022/03/23 07:47:33;;;;;;;12.13;7.03;;;20.40;84.30;;;;;;4231537;28;20274;-69
2022/03/23 07:49:36;;;;;;;9.75;7.03;;;20.40;84.30;;;;;;4230976;28;20217;-69
2022/03/23 07:51:39;;;;;;;10.10;7.55;;;20.40;84.10;;;;;;4230298;28;20217;-69
2022/03/23 07:53:41;;;;;;;13.20;8.38;;;20.40;84.10;;;;;;4230427;28;20209;-69
2022/03/23 07:55:43;;;;;;;13.13;9.20;;;20.40;83.00;;;;;;4230310;28;20214;-69
2022/03/23 07:57:46;;;;;;;14.18;8.95;;;20.40;82.10;;;;;;4217730;27;20219;-69
2022/03/23 07:59:49;;;;;;;13.85;8.20;;;20.40;83.20;;;;;;4222686;28;20571;-70
2022/03/23 08:01:51;;;;;;;14.52;8.10;;;20.50;83.20;;;;;;4222231;27;20245;-69
2022/03/23 08:03:53;;;;;;;11.60;7.63;;;20.50;84.80;;;;;;4226932;27;20221;-69
2022/03/23 08:05:57;;;;;;;12.27;8.13;;;20.60;84.50;;;;;;4222927;27;20225;-71
2022/03/23 08:07:59;;;;;;;12.50;8.02;;;20.60;84.70;;;;;;4223374;28;20670;-70
2022/03/23 08:10:02;;;;;;;16.95;7.88;;;20.60;84.60;;;;;;4217976;28;20737;-71
2022/03/23 08:12:05;;;;;;;16.15;7.03;;;20.60;84.80;;;;;;4224202;28;20209;-69
2022/03/23 08:14:07;;;;;;;16.27;8.07;;;20.60;85.60;;;;;;4222808;28;20226;-69
2022/03/23 08:16:11;;;;;;;11.85;7.38;;;20.60;86.60;;;;;;4221079;28;20218;-70
2022/03/23 08:18:17;;;;;;;18.77;8.10;;;20.70;87.20;;;;;;4222794;28;20225;-71
2022/03/23 08:20:35;;;;;;;27.77;9.38;;;20.70;85.00;;;;;;4219829;27;20218;-70
2022/03/23 08:22:39;;;;;;;22.45;7.97;;;20.80;86.20;;;;;;4218752;28;20241;-69
2022/03/23 08:24:41;;;;;;;17.17;8.32;;;20.80;87.30;;;;;;4218118;27;20206;-71
2022/03/23 08:26:43;;;;;;;21.60;8.20;;;20.80;87.10;;;;;;4217507;28;21038;-71
2022/03/23 08:28:47;;;;;;;17.48;8.48;;;20.80;84.90;;;;;;4222261;27;20654;-71
2022/03/23 08:30:50;;;;;;;24.15;8.60;;;20.80;86.60;;;;;;4219476;27;20280;-70
2022/03/23 08:32:53;;;;;;;32.67;8.40;;;20.90;86.20;;;;;;4220578;28;20229;-69
2022/03/23 08:34:55;;;;;;;15.07;7.72;;;21.00;88.30;;;;;;4224052;28;20222;-70
2022/03/23 08:37:00;;;;;;;13.80;8.40;;;21.00;86.70;;;;;;4222845;28;20213;-70
2022/03/23 08:39:04;;;;;;;14.35;7.40;;;21.10;86.50;;;;;;4223670;28;20233;-70
2022/03/23 08:41:07;;;;;;;19.77;7.28;;;21.10;88.30;;;;;;4205254;27;21939;-71
2022/03/23 08:43:10;;;;;;;11.82;7.15;;;21.10;88.50;;;;;;4205930;28;20272;-70
2022/03/23 08:45:13;;;;;;;12.48;6.63;;;21.20;88.30;;;;;;4222125;28;20210;-69
2022/03/23 08:47:16;;;;;;;11.07;7.00;;;21.20;90.00;;;;;;4224356;28;20295;-71
2022/03/23 08:49:18;;;;;;;13.57;6.88;;;21.20;87.40;;;;;;4223116;28;20218;-70
2022/03/23 08:51:21;;;;;;;14.43;6.82;;;21.30;86.50;;;;;;4223599;28;20210;-70
2022/03/23 08:53:25;;;;;;;13.13;7.30;;;21.30;87.90;;;;;;4220950;27;20232;-71
2022/03/23 08:55:29;;;;;;;11.18;7.45;;;21.30;90.30;;;;;;4220585;27;20218;-69
2022/03/23 08:57:32;;;;;;;14.38;6.80;;;21.30;89.20;;;;;;4222877;28;20274;-71
2022/03/23 08:59:34;;;;;;;12.93;7.65;;;21.30;88.30;;;;;;4222276;28;20213;-70
2022/03/23 09:01:37;;;;;;;12.52;7.07;;;21.30;88.70;;;;;;4216584;28;20316;-71
2022/03/23 09:03:39;;;;;;;14.70;6.80;;;21.30;88.70;;;;;;4223849;28;20716;-70
2022/03/23 09:05:41;;;;;;;11.13;6.93;;;21.40;88.90;;;;;;4221000;28;20642;-71
2022/03/23 09:07:44;;;;;;;13.57;7.22;;;21.40;86.70;;;;;;4222619;28;20218;-70
2022/03/23 09:09:46;;;;;;;26.23;8.65;;;21.50;86.80;;;;;;4223040;28;20591;-71
2022/03/23 09:11:50;;;;;;;11.40;6.80;;;21.50;87.60;;;;;;4222155;28;20239;-71
2022/03/23 09:13:53;;;;;;;15.07;6.85;;;21.50;87.70;;;;;;4218925;28;20291;-71
2022/03/23 09:15:59;;;;;;;18.13;7.13;;;21.50;87.30;;;;;;4219747;28;20226;-71
2022/03/23 09:18:02;;;;;;;16.77;7.60;;;21.50;87.80;;;;;;4220116;28;20263;-70
2022/03/23 09:20:06;;;;;;;13.77;7.55;;;21.60;87.20;;;;;;4216846;28;20264;-71
2022/03/23 09:22:08;;;;;;;13.82;7.85;;;21.60;86.90;;;;;;4214045;27;20263;-73
2022/03/23 09:24:11;;;;;;;16.88;7.75;;;21.60;87.70;;;;;;4223502;28;20638;-72
2022/03/23 09:26:13;;;;;;;21.98;11.65;;;21.60;88.60;;;;;;4223403;28;20631;-72
2022/03/23 09:28:17;;;;;;;19.23;10.85;;;21.60;86.40;;;;;;4220973;28;20288;-74
2022/03/23 09:30:21;;;;;;;19.88;9.38;;;21.50;85.50;;;;;;4224431;27;20251;-74
2022/03/23 09:32:24;;;;;;;14.57;8.35;;;21.50;86.60;;;;;;4218639;27;20271;-74
2022/03/23 09:34:26;;;;;;;18.65;8.27;;;21.50;87.10;;;;;;4227721;27;20740;-74
2022/03/23 09:38:45;;;;;;;21.42;8.57;;;21.70;86.80;;;;;;4178534;28;20302;-74
2022/03/23 09:40:50;;;;;;;14.85;7.40;;;21.70;87.50;;;;;;4227747;28;20625;-75
2022/03/23 09:42:53;;;;;;;13.18;7.47;;;21.70;88.00;;;;;;4227819;27;20259;-74
2022/03/23 09:44:58;;;;;;;13.88;7.00;;;21.80;87.50;;;;;;4226722;27;20214;-73
2022/03/23 09:47:01;;;;;;;16.27;7.57;;;21.80;87.50;;;;;;4226996;27;20317;-73
2022/03/23 09:49:06;;;;;;;14.50;8.10;;;21.80;88.10;;;;;;4227108;27;20283;-75
2022/03/23 09:51:11;;;;;;;19.10;7.68;;;21.80;87.70;;;;;;4226087;28;20202;-73
2022/03/23 09:53:14;;;;;;;19.65;7.68;;;21.80;87.00;;;;;;4224164;27;20773;-72
2022/03/23 09:55:17;;;;;;;15.50;7.50;;;21.80;87.50;;;;;;4229695;27;20222;-72
2022/03/23 09:57:19;;;;;;;11.95;6.53;;;21.80;87.10;;;;;;4219462;27;20244;-73
2022/03/23 09:59:21;;;;;;;12.48;6.47;;;21.90;89.10;;;;;;4218967;27;20234;-74
2022/03/23 10:02:16;;;;;;;17.67;7.28;;;21.90;89.30;;;;;;4208445;28;20223;-73
2022/03/23 10:05:16;;;;;;;14.73;7.13;;;21.80;89.10;;;;;;4221482;28;20278;-74
2022/03/23 10:07:24;;;;;;;16.13;7.13;;;21.90;88.70;;;;;;4218335;28;20833;-75
2022/03/23 10:10:12;;;;;;;17.02;7.45;;;21.90;88.20;;;;;;4215503;28;20213;-73
2022/03/23 10:12:48;;;;;;;17.10;7.78;;;21.90;88.50;;;;;;4221712;27;20742;-73
2022/03/23 10:15:28;;;;;;;14.05;7.20;;;21.90;88.00;;;;;;4210369;28;20721;-74
2022/03/23 10:18:10;;;;;;;15.70;8.05;;;21.90;88.60;;;;;;4218452;28;20654;-74
2022/03/23 10:20:14;;;;;;;14.52;6.80;;;21.90;89.20;;;;;;4192918;27;20217;-74
2022/03/23 10:22:16;;;;;;;11.77;7.03;;;22.00;88.60;;;;;;4220193;28;20263;-73
2022/03/23 10:24:36;;;;;;;13.35;6.97;;;22.10;88.10;;;;;;4219664;27;20661;-73
2022/03/23 10:26:41;;;;;;;14.82;6.97;;;21.90;88.50;;;;;;4223641;28;20214;-73
2022/03/23 10:28:43;;;;;;;11.88;7.03;;;22.00;89.40;;;;;;4222499;27;20314;-73
2022/03/23 10:30:47;;;;;;;9.65;6.28;;;22.10;89.30;;;;;;4219613;27;20218;-74
2022/03/23 10:32:52;;;;;;;13.05;6.57;;;22.10;88.70;;;;;;4220926;28;20214;-74
2022/03/23 10:34:55;;;;;;;12.98;6.35;;;22.10;88.70;;;;;;4214049;28;20276;-74
2022/03/23 10:37:01;;;;;;;12.77;6.90;;;22.20;88.80;;;;;;4210010;28;20213;-74
2022/03/23 10:39:06;;;;;;;13.50;8.90;;;22.20;88.90;;;;;;4216745;28;20238;-73
2022/03/23 10:41:11;;;;;;;14.63;7.85;;;22.20;87.90;;;;;;4219268;28;20275;-74
2022/03/23 10:43:16;;;;;;;8.95;6.72;;;22.20;88.80;;;;;;4221349;28;20229;-74
2022/03/23 10:45:21;;;;;;;13.40;7.00;;;22.20;88.90;;;;;;4218947;28;20605;-76
2022/03/23 10:47:31;;;;;;;12.55;6.45;;;22.20;88.80;;;;;;4221581;27;20263;-75
2022/03/23 10:49:38;;;;;;;14.73;6.72;;;22.20;87.70;;;;;;4222813;27;20244;-75
2022/03/23 10:51:42;;;;;;;16.65;6.45;;;22.20;88.80;;;;;;4223315;28;20218;-74
2022/03/23 10:53:46;;;;;;;10.48;6.35;;;22.20;88.80;;;;;;4219349;28;20260;-75
2022/03/23 10:55:49;;;;;;;11.48;6.45;;;22.20;88.80;;;;;;4223338;27;20266;-74